Time,TemperatureF,DewpointF,PressureIn,WindDirection,WindDirectionDegrees,WindSpeedMPH,WindSpeedGustMPH,Humidity,HourlyPrecipIn,Conditions,Clouds,dailyrainin,SoftwareType,DateUTC
2013-11-28 00:00:00,25.5,-6.2,29.12,North,4,0.0,0.0,24,0.00,,,0.00,VWS V13.01,2013-11-28 06:00:00,
2013-11-28 00:05:00,25.7,-6.1,29.12,North,4,0.0,0.0,24,0.00,,,0.00,VWS V13.01,2013-11-28 06:05:00,
2013-11-28 00:10:00,25.5,-6.2,29.12,North,4,0.0,0.0,24,0.00,,,0.00,VWS V13.01,2013-11-28 06:10:00,
2013-11-28 00:15:00,25.5,-6.2,29.12,North,4,0.0,0.0,24,0.00,,,0.00,VWS V13.01,2013-11-28 06:15:00,
2013-11-28 00:20:00,25.5,-6.2,29.12,North,4,0.0,0.0,24,0.00,,,0.00,VWS V13.01,2013-11-28 06:20:00,
2013-11-28 00:26:00,25.5,-6.2,29.12,North,3,0.0,0.0,24,0.00,,,0.00,VWS V13.01,2013-11-28 06:26:00,
2013-11-28 00:31:00,25.3,-6.4,29.12,North,4,0.0,0.0,24,0.00,,,0.00,VWS V13.01,2013-11-28 06:31:00,
2013-11-28 00:36:00,25.2,-6.6,29.12,North,4,0.0,0.0,24,0.00,,,0.00,VWS V13.01,2013-11-28 06:36:00,
2013-11-28 00:41:00,25.2,-6.6,29.12,North,4,0.0,0.0,24,0.00,,,0.00,VWS V13.01,2013-11-28 06:41:00,
2013-11-28 00:46:00,25.2,-6.6,29.12,North,4,0.0,0.0,24,0.00,,,0.00,VWS V13.01,2013-11-28 06:46:00,
2013-11-28 00:51:00,25.2,-6.6,29.12,North,4,0.0,0.0,24,0.00,,,0.00,VWS V13.01,2013-11-28 06:51:00,
2013-11-28 00:56:00,25.0,-6.7,29.12,North,4,0.0,0.0,24,0.00,,,0.00,VWS V13.01,2013-11-28 06:56:00,
2013-11-28 01:01:00,25.2,-6.6,29.12,North,4,0.0,0.0,24,0.00,,,0.00,VWS V13.01,2013-11-28 07:01:00,
2013-11-28 01:06:00,25.2,-6.6,29.12,North,4,0.0,0.0,24,0.00,,,0.00,VWS V13.01,2013-11-28 07:06:00,
2013-11-28 01:11:00,25.2,-6.6,29.12,North,4,0.0,0.0,24,0.00,,,0.00,VWS V13.01,2013-11-28 07:11:00,
2013-11-28 01:16:00,25.3,-6.4,29.09,North,3,0.0,0.0,24,0.00,,,0.00,VWS V13.01,2013-11-28 07:16:00,
2013-11-28 01:21:00,25.3,-6.4,29.09,North,4,0.0,0.0,24,0.00,,,0.00,VWS V13.01,2013-11-28 07:21:00,
2013-11-28 01:26:00,25.3,-6.4,29.09,North,3,0.0,0.0,24,0.00,,,0.00,VWS V13.01,2013-11-28 07:26:00,
2013-11-28 01:31:00,25.3,-6.4,29.09,North,4,0.0,0.0,24,0.00,,,0.00,VWS V13.01,2013-11-28 07:31:00,
2013-11-28 01:36:00,25.2,-6.6,29.09,North,3,0.0,0.0,24,0.00,,,0.00,VWS V13.01,2013-11-28 07:36:00,
2013-11-28 01:41:00,25.2,-6.6,29.09,North,4,0.0,0.0,24,0.00,,,0.00,VWS V13.01,2013-11-28 07:41:00,
2013-11-28 01:46:00,25.2,-6.6,29.12,North,4,0.0,0.0,24,0.00,,,0.00,VWS V13.01,2013-11-28 07:46:00,
2013-11-28 01:51:00,25.2,-6.6,29.12,North,4,0.0,0.0,24,0.00,,,0.00,VWS V13.01,2013-11-28 07:51:00,
2013-11-28 01:56:00,25.0,-6.7,29.12,North,4,0.0,0.0,24,0.00,,,0.00,VWS V13.01,2013-11-28 07:56:00,
2013-11-28 02:01:00,24.8,-6.9,29.09,North,3,0.0,0.0,24,0.00,,,0.00,VWS V13.01,2013-11-28 08:01:00,
2013-11-28 02:06:00,24.8,-6.9,29.09,North,4,0.0,0.0,24,0.00,,,0.00,VWS V13.01,2013-11-28 08:06:00,
2013-11-28 02:11:00,24.6,-7.0,29.09,North,3,0.0,0.0,24,0.00,,,0.00,VWS V13.01,2013-11-28 08:11:00,
2013-11-28 02:16:00,24.6,-7.0,29.09,North,4,0.0,0.0,24,0.00,,,0.00,VWS V13.01,2013-11-28 08:16:00,
2013-11-28 02:21:00,24.6,-7.0,29.09,North,3,0.0,0.0,24,0.00,,,0.00,VWS V13.01,2013-11-28 08:21:00,
2013-11-28 02:26:00,24.6,-7.0,29.09,North,4,0.0,0.0,24,0.00,,,0.00,VWS V13.01,2013-11-28 08:26:00,
2013-11-28 02:31:00,24.6,-7.0,29.09,North,4,0.0,0.0,24,0.00,,,0.00,VWS V13.01,2013-11-28 08:31:00,
2013-11-28 02:36:00,24.4,-7.2,29.09,North,4,0.0,0.0,24,0.00,,,0.00,VWS V13.01,2013-11-28 08:36:00,
2013-11-28 02:41:00,24.4,-7.2,29.09,North,4,0.0,0.0,24,0.00,,,0.00,VWS V13.01,2013-11-28 08:41:00,
2013-11-28 02:46:00,24.4,-7.2,29.09,North,4,0.0,0.0,24,0.00,,,0.00,VWS V13.01,2013-11-28 08:46:00,
2013-11-28 02:51:00,24.4,-7.2,29.09,North,3,0.0,0.0,24,0.00,,,0.00,VWS V13.01,2013-11-28 08:51:00,
2013-11-28 02:56:00,24.4,-7.2,29.09,North,4,0.0,0.0,24,0.00,,,0.00,VWS V13.01,2013-11-28 08:56:00,
2013-11-28 03:01:00,24.4,-7.2,29.09,North,4,0.0,0.0,24,0.00,,,0.00,VWS V13.01,2013-11-28 09:01:00,
2013-11-28 03:06:00,24.4,-7.2,29.09,North,4,0.0,0.0,24,0.00,,,0.00,VWS V13.01,2013-11-28 09:06:00,
2013-11-28 03:12:00,24.4,-7.2,29.09,North,4,0.0,0.0,24,0.00,,,0.00,VWS V13.01,2013-11-28 09:12:00,
2013-11-28 03:17:00,24.4,-7.2,29.09,North,4,0.0,0.0,24,0.00,,,0.00,VWS V13.01,2013-11-28 09:17:00,
2013-11-28 03:22:00,24.4,-7.2,29.09,North,4,0.0,0.0,24,0.00,,,0.00,VWS V13.01,2013-11-28 09:22:00,
2013-11-28 03:27:00,24.4,-7.2,29.09,North,4,0.0,0.0,24,0.00,,,0.00,VWS V13.01,2013-11-28 09:27:00,
2013-11-28 03:32:00,24.3,-7.3,29.09,North,4,0.0,0.0,24,0.00,,,0.00,VWS V13.01,2013-11-28 09:32:00,
2013-11-28 03:37:00,24.3,-7.3,29.09,North,4,0.0,0.0,24,0.00,,,0.00,VWS V13.01,2013-11-28 09:37:00,
2013-11-28 03:42:00,24.3,-7.3,29.09,North,4,0.0,0.0,24,0.00,,,0.00,VWS V13.01,2013-11-28 09:42:00,
2013-11-28 03:47:00,24.1,-7.5,29.09,North,4,0.0,0.0,24,0.00,,,0.00,VWS V13.01,2013-11-28 09:47:00,
2013-11-28 03:52:00,24.1,-7.5,29.09,North,4,0.0,0.0,24,0.00,,,0.00,VWS V13.01,2013-11-28 09:52:00,
2013-11-28 03:57:00,23.9,-7.6,29.09,North,4,0.0,0.0,24,0.00,,,0.00,VWS V13.01,2013-11-28 09:57:00,
2013-11-28 04:02:00,23.9,-7.6,29.09,North,4,0.0,0.0,24,0.00,,,0.00,VWS V13.01,2013-11-28 10:02:00,
2013-11-28 04:07:00,23.7,-7.8,29.09,North,4,0.0,0.0,24,0.00,,,0.00,VWS V13.01,2013-11-28 10:07:00,
2013-11-28 04:12:00,23.7,-7.8,29.09,North,4,0.0,0.0,24,0.00,,,0.00,VWS V13.01,2013-11-28 10:12:00,
2013-11-28 04:17:00,23.7,-7.8,29.09,North,4,0.0,0.0,24,0.00,,,0.00,VWS V13.01,2013-11-28 10:17:00,
2013-11-28 04:22:00,23.7,-7.8,29.09,North,4,0.0,0.0,24,0.00,,,0.00,VWS V13.01,2013-11-28 10:22:00,
2013-11-28 04:27:00,23.5,-7.9,29.09,North,4,0.0,0.0,24,0.00,,,0.00,VWS V13.01,2013-11-28 10:27:00,
2013-11-28 04:32:00,23.5,-7.9,29.09,North,4,0.0,0.0,24,0.00,,,0.00,VWS V13.01,2013-11-28 10:32:00,
2013-11-28 04:37:00,23.5,-7.9,29.09,North,4,0.0,0.0,24,0.00,,,0.00,VWS V13.01,2013-11-28 10:37:00,
2013-11-28 04:42:00,23.5,-7.9,29.09,North,4,0.0,0.0,24,0.00,,,0.00,VWS V13.01,2013-11-28 10:42:00,
2013-11-28 04:47:00,23.5,-7.9,29.09,North,4,0.0,0.0,24,0.00,,,0.00,VWS V13.01,2013-11-28 10:47:00,
2013-11-28 04:52:00,23.5,-7.9,29.09,North,4,0.0,0.0,24,0.00,,,0.00,VWS V13.01,2013-11-28 10:52:00,
2013-11-28 04:57:00,23.5,-7.9,29.09,North,4,0.0,0.0,24,0.00,,,0.00,VWS V13.01,2013-11-28 10:57:00,
2013-11-28 05:02:00,23.5,-7.9,29.12,North,4,0.0,0.0,24,0.00,,,0.00,VWS V13.01,2013-11-28 11:02:00,
2013-11-28 05:07:00,23.5,-7.9,29.12,North,4,0.0,0.0,24,0.00,,,0.00,VWS V13.01,2013-11-28 11:07:00,
2013-11-28 05:12:00,23.5,-7.9,29.12,North,5,0.0,0.0,24,0.00,,,0.00,VWS V13.01,2013-11-28 11:12:00,
2013-11-28 05:17:00,23.4,-8.1,29.12,North,5,0.0,0.0,24,0.00,,,0.00,VWS V13.01,2013-11-28 11:17:00,
2013-11-28 05:22:00,23.5,-7.9,29.12,North,4,0.0,0.0,24,0.00,,,0.00,VWS V13.01,2013-11-28 11:22:00,
2013-11-28 05:27:00,23.7,-7.8,29.12,North,4,0.0,0.0,24,0.00,,,0.00,VWS V13.01,2013-11-28 11:27:00,
2013-11-28 05:32:00,23.7,-7.8,29.12,North,5,0.0,0.0,24,0.00,,,0.00,VWS V13.01,2013-11-28 11:32:00,
2013-11-28 05:37:00,23.9,-7.6,29.12,North,5,0.0,0.0,24,0.00,,,0.00,VWS V13.01,2013-11-28 11:37:00,
2013-11-28 05:42:00,23.9,-7.6,29.12,North,5,0.0,0.0,24,0.00,,,0.00,VWS V13.01,2013-11-28 11:42:00,
2013-11-28 05:47:00,24.1,-7.5,29.12,North,5,0.0,0.0,24,0.00,,,0.00,VWS V13.01,2013-11-28 11:47:00,
2013-11-28 05:52:00,24.3,-7.3,29.12,North,6,0.0,0.0,24,0.00,,,0.00,VWS V13.01,2013-11-28 11:52:00,
2013-11-28 05:57:00,24.4,-7.2,29.12,North,6,0.0,0.0,24,0.00,,,0.00,VWS V13.01,2013-11-28 11:57:00,
2013-11-28 06:02:00,24.4,-7.2,29.12,North,5,0.0,0.0,24,0.00,,,0.00,VWS V13.01,2013-11-28 12:02:00,
2013-11-28 06:07:00,24.4,-7.2,29.12,North,5,0.0,0.0,24,0.00,,,0.00,VWS V13.01,2013-11-28 12:07:00,
2013-11-28 06:12:00,24.4,-7.2,29.12,North,6,0.0,0.0,24,0.00,,,0.00,VWS V13.01,2013-11-28 12:12:00,
2013-11-28 06:17:00,24.3,-7.3,29.12,North,6,0.0,0.0,24,0.00,,,0.00,VWS V13.01,2013-11-28 12:17:00,
2013-11-28 06:22:00,24.3,-7.3,29.12,North,5,0.0,0.0,24,0.00,,,0.00,VWS V13.01,2013-11-28 12:22:00,
2013-11-28 06:27:00,24.3,-7.3,29.12,North,6,0.0,0.0,24,0.00,,,0.00,VWS V13.01,2013-11-28 12:27:00,
2013-11-28 06:32:00,24.1,-7.5,29.15,North,6,0.0,0.0,24,0.00,,,0.00,VWS V13.01,2013-11-28 12:32:00,
2013-11-28 06:38:00,24.1,-7.5,29.15,North,5,0.0,0.0,24,0.00,,,0.00,VWS V13.01,2013-11-28 12:38:00,
2013-11-28 06:43:00,23.9,-7.6,29.15,North,6,0.0,0.0,24,0.00,,,0.00,VWS V13.01,2013-11-28 12:43:00,
2013-11-28 06:48:00,23.7,-7.8,29.15,North,5,0.0,0.0,24,0.00,,,0.00,VWS V13.01,2013-11-28 12:48:00,
2013-11-28 06:53:00,23.5,-7.9,29.15,North,6,0.0,0.0,24,0.00,,,0.00,VWS V13.01,2013-11-28 12:53:00,
2013-11-28 06:58:00,23.5,-7.9,29.15,North,5,0.0,0.0,24,0.00,,,0.00,VWS V13.01,2013-11-28 12:58:00,
2013-11-28 07:03:00,23.4,-8.1,29.15,North,7,0.0,0.0,24,0.00,,,0.00,VWS V13.01,2013-11-28 13:03:00,
2013-11-28 07:08:00,23.0,-7.6,29.15,North,6,0.0,0.0,25,0.00,,,0.00,VWS V13.01,2013-11-28 13:08:00,
2013-11-28 07:13:00,22.8,-7.7,29.15,North,10,7.6,7.6,25,0.00,,,0.00,VWS V13.01,2013-11-28 13:13:00,
2013-11-28 07:18:00,22.5,-8.0,29.18,North,7,0.0,5.8,25,0.00,,,0.00,VWS V13.01,2013-11-28 13:18:00,
2013-11-28 07:23:00,22.3,-8.2,29.18,North,7,0.0,4.0,25,0.00,,,0.00,VWS V13.01,2013-11-28 13:23:00,
2013-11-28 07:28:00,22.1,-8.3,29.18,North,5,4.5,4.5,25,0.00,,,0.00,VWS V13.01,2013-11-28 13:28:00,
2013-11-28 07:33:00,22.1,-8.3,29.18,North,11,0.0,0.0,25,0.00,,,0.00,VWS V13.01,2013-11-28 13:33:00,
2013-11-28 07:38:00,21.9,-8.5,29.18,North,6,0.0,0.0,25,0.00,,,0.00,VWS V13.01,2013-11-28 13:38:00,
2013-11-28 07:43:00,21.9,-8.5,29.18,North,7,3.6,3.6,25,0.00,,,0.00,VWS V13.01,2013-11-28 13:43:00,
2013-11-28 07:48:00,21.9,-8.5,29.18,North,6,0.0,0.0,25,0.00,,,0.00,VWS V13.01,2013-11-28 13:48:00,
2013-11-28 07:53:00,22.3,-8.2,29.18,North,7,0.0,2.2,25,0.00,,,0.00,VWS V13.01,2013-11-28 13:53:00,
2013-11-28 07:58:00,22.6,-7.9,29.18,North,11,0.0,4.9,25,0.00,,,0.00,VWS V13.01,2013-11-28 13:58:00,
2013-11-28 08:04:00,23.0,-7.6,29.21,North,6,0.0,7.2,25,0.00,,,0.00,VWS V13.01,2013-11-28 14:04:00,
2013-11-28 08:09:00,23.4,-8.1,29.21,North,6,3.1,6.7,24,0.00,,,0.00,VWS V13.01,2013-11-28 14:09:00,
2013-11-28 08:14:00,23.7,-7.8,29.21,North,4,7.6,7.6,24,0.00,,,0.00,VWS V13.01,2013-11-28 14:14:00,
2013-11-28 08:19:00,24.1,-7.5,29.21,NNE,21,4.0,8.3,24,0.00,,,0.00,VWS V13.01,2013-11-28 14:19:00,
2013-11-28 08:24:00,24.4,-7.2,29.21,NNE,27,6.3,6.3,24,0.00,,,0.00,VWS V13.01,2013-11-28 14:24:00,
2013-11-28 08:29:00,24.6,-7.0,29.21,North,3,2.2,10.1,24,0.00,,,0.00,VWS V13.01,2013-11-28 14:29:00,
2013-11-28 08:34:00,24.8,-6.9,29.23,North,3,0.0,0.0,24,0.00,,,0.00,VWS V13.01,2013-11-28 14:34:00,
2013-11-28 08:39:00,25.0,-6.7,29.23,North,4,0.0,10.1,24,0.00,,,0.00,VWS V13.01,2013-11-28 14:39:00,
2013-11-28 08:44:00,25.3,-6.4,29.23,North,10,5.4,5.4,24,0.00,,,0.00,VWS V13.01,2013-11-28 14:44:00,
2013-11-28 08:49:00,25.5,-6.2,29.23,NNE,25,3.1,3.1,24,0.00,,,0.00,VWS V13.01,2013-11-28 14:49:00,
2013-11-28 08:54:00,26.1,-5.8,29.23,North,6,0.0,0.0,24,0.00,,,0.00,VWS V13.01,2013-11-28 14:54:00,
2013-11-28 08:59:00,27.0,-5.9,29.23,North,0,0.0,0.0,23,0.00,,,0.00,VWS V13.01,2013-11-28 14:59:00,
2013-11-28 09:04:00,27.1,-5.7,29.23,North,9,0.0,2.2,23,0.00,,,0.00,VWS V13.01,2013-11-28 15:04:00,
2013-11-28 09:09:00,27.0,-5.9,29.23,North,3,0.0,0.0,23,0.00,,,0.00,VWS V13.01,2013-11-28 15:09:00,
2013-11-28 09:14:00,26.8,-6.0,29.23,North,4,4.5,10.5,23,0.00,,,0.00,VWS V13.01,2013-11-28 15:14:00,
2013-11-28 09:19:00,27.0,-5.9,29.26,North,2,0.0,4.0,23,0.00,,,0.00,VWS V13.01,2013-11-28 15:19:00,
2013-11-28 09:24:00,27.5,-5.4,29.26,North,3,0.0,3.1,23,0.00,,,0.00,VWS V13.01,2013-11-28 15:24:00,
2013-11-28 09:29:00,27.9,-5.1,29.26,NNE,15,0.0,8.3,23,0.00,,,0.00,VWS V13.01,2013-11-28 15:29:00,
2013-11-28 09:34:00,28.0,-5.0,29.26,North,11,6.3,8.3,23,0.00,,,0.00,VWS V13.01,2013-11-28 15:34:00,
2013-11-28 09:39:00,27.9,-5.1,29.26,North,3,0.0,4.0,23,0.00,,,0.00,VWS V13.01,2013-11-28 15:39:00,
2013-11-28 09:45:00,28.0,-5.0,29.26,North,6,4.0,4.0,23,0.00,,,0.00,VWS V13.01,2013-11-28 15:45:00,
2013-11-28 09:50:00,28.4,-4.7,29.26,North,1,6.3,6.3,23,0.00,,,0.00,VWS V13.01,2013-11-28 15:50:00,
2013-11-28 09:55:00,28.9,-4.2,29.26,NNE,23,2.7,2.7,23,0.00,,,0.00,VWS V13.01,2013-11-28 15:55:00,
2013-11-28 10:00:00,29.1,-4.1,29.29,North,6,5.8,8.7,23,0.00,,,0.00,VWS V13.01,2013-11-28 16:00:00,
2013-11-28 10:05:00,28.9,-4.2,29.29,NNE,22,8.7,8.7,23,0.00,,,0.00,VWS V13.01,2013-11-28 16:05:00,
2013-11-28 10:10:00,29.5,-3.7,29.29,North,5,0.0,0.0,23,0.00,,,0.00,VWS V13.01,2013-11-28 16:10:00,
2013-11-28 10:15:00,29.8,-3.4,29.29,North,7,8.1,8.1,23,0.00,,,0.00,VWS V13.01,2013-11-28 16:15:00,
2013-11-28 10:20:00,29.8,-3.4,29.29,North,6,2.2,2.2,23,0.00,,,0.00,VWS V13.01,2013-11-28 16:20:00,
2013-11-28 10:25:00,29.7,-3.6,29.29,North,3,0.0,0.0,23,0.00,,,0.00,VWS V13.01,2013-11-28 16:25:00,
2013-11-28 10:30:00,30.2,-3.1,29.29,NNE,12,0.0,3.1,23,0.00,,,0.00,VWS V13.01,2013-11-28 16:30:00,
2013-11-28 10:35:00,31.1,-2.4,29.29,North,5,8.7,8.7,23,0.00,,,0.00,VWS V13.01,2013-11-28 16:35:00,
2013-11-28 10:40:00,30.7,-2.7,29.29,NNE,16,0.0,0.0,23,0.00,,,0.00,VWS V13.01,2013-11-28 16:40:00,
2013-11-28 10:45:00,30.9,-2.5,29.29,North,4,0.0,2.2,23,0.00,,,0.00,VWS V13.01,2013-11-28 16:45:00,
2013-11-28 10:50:00,31.1,-2.4,29.29,North,3,6.3,6.3,23,0.00,,,0.00,VWS V13.01,2013-11-28 16:50:00,
2013-11-28 10:56:00,31.1,-2.4,29.29,North,8,0.0,10.1,23,0.00,,,0.00,VWS V13.01,2013-11-28 16:56:00,
2013-11-28 11:01:00,31.3,-2.2,29.29,North,5,0.0,0.0,23,0.00,,,0.00,VWS V13.01,2013-11-28 17:01:00,
2013-11-28 11:06:00,32.4,-1.3,29.29,North,6,0.0,0.0,23,0.00,,,0.00,VWS V13.01,2013-11-28 17:06:00,
2013-11-28 11:11:00,32.7,-1.0,29.29,North,8,0.0,5.4,23,0.00,,,0.00,VWS V13.01,2013-11-28 17:11:00,
2013-11-28 11:16:00,32.4,-1.3,29.29,North,7,0.0,0.0,23,0.00,,,0.00,VWS V13.01,2013-11-28 17:16:00,
2013-11-28 11:21:00,33.4,-0.4,29.29,North,4,0.0,0.0,23,0.00,,,0.00,VWS V13.01,2013-11-28 17:21:00,
2013-11-28 11:26:00,34.5,-0.4,29.29,North,9,2.2,2.7,22,0.00,,,0.00,VWS V13.01,2013-11-28 17:26:00,
2013-11-28 11:31:00,34.0,-0.9,29.29,North,8,7.2,8.3,22,0.00,,,0.00,VWS V13.01,2013-11-28 17:31:00,
2013-11-28 11:36:00,33.3,-0.5,29.29,North,9,3.1,5.8,23,0.00,,,0.00,VWS V13.01,2013-11-28 17:36:00,
2013-11-28 11:41:00,33.8,-1.0,29.29,North,5,2.7,5.8,22,0.00,,,0.00,VWS V13.01,2013-11-28 17:41:00,
2013-11-28 11:46:00,34.0,-0.9,29.29,North,5,3.6,3.6,22,0.00,,,0.00,VWS V13.01,2013-11-28 17:46:00,
2013-11-28 11:51:00,34.9,-0.1,29.29,NE,41,2.2,10.1,22,0.00,,,0.00,VWS V13.01,2013-11-28 17:51:00,
2013-11-28 11:56:00,34.9,-0.1,29.29,North,10,6.3,9.2,22,0.00,,,0.00,VWS V13.01,2013-11-28 17:56:00,
2013-11-28 12:01:00,34.3,-0.6,29.32,NNE,17,2.2,6.7,22,0.00,,,0.00,VWS V13.01,2013-11-28 18:01:00,
2013-11-28 12:06:00,34.5,-0.4,29.32,NNE,12,4.9,4.9,22,0.00,,,0.00,VWS V13.01,2013-11-28 18:06:00,
2013-11-28 12:11:00,34.7,-0.2,29.32,North,7,0.0,7.6,22,0.00,,,0.00,VWS V13.01,2013-11-28 18:11:00,
2013-11-28 12:16:00,34.9,-0.1,29.32,North,11,4.9,11.0,22,0.00,,,0.00,VWS V13.01,2013-11-28 18:16:00,
2013-11-28 12:21:00,34.7,-0.2,29.32,NE,35,0.0,2.2,22,0.00,,,0.00,VWS V13.01,2013-11-28 18:21:00,
2013-11-28 12:26:00,35.4,0.4,29.32,North,6,0.0,0.0,22,0.00,,,0.00,VWS V13.01,2013-11-28 18:26:00,
2013-11-28 12:31:00,35.2,0.2,29.32,NNE,14,0.0,2.2,22,0.00,,,0.00,VWS V13.01,2013-11-28 18:31:00,
2013-11-28 12:36:00,35.8,0.7,29.32,North,3,0.0,0.0,22,0.00,,,0.00,VWS V13.01,2013-11-28 18:36:00,
2013-11-28 12:41:00,36.0,0.8,29.32,NNE,14,8.3,8.3,22,0.00,,,0.00,VWS V13.01,2013-11-28 18:41:00,
2013-11-28 12:46:00,35.6,0.5,29.32,NNE,14,2.2,2.2,22,0.00,,,0.00,VWS V13.01,2013-11-28 18:46:00,
2013-11-28 12:51:00,35.8,0.7,29.32,North,9,4.9,4.9,22,0.00,,,0.00,VWS V13.01,2013-11-28 18:51:00,
2013-11-28 12:56:00,35.6,0.5,29.32,NNE,25,0.0,2.2,22,0.00,,,0.00,VWS V13.01,2013-11-28 18:56:00,
2013-11-28 13:02:00,36.1,1.0,29.32,North,1,2.7,7.6,22,0.00,,,0.00,VWS V13.01,2013-11-28 19:02:00,
2013-11-28 13:07:00,36.0,0.8,29.32,North,4,0.0,2.2,22,0.00,,,0.00,VWS V13.01,2013-11-28 19:07:00,
2013-11-28 13:12:00,36.1,1.0,29.32,North,5,0.0,0.0,22,0.00,,,0.00,VWS V13.01,2013-11-28 19:12:00,
2013-11-28 13:17:00,36.1,1.0,29.32,North,2,2.7,2.7,22,0.00,,,0.00,VWS V13.01,2013-11-28 19:17:00,
2013-11-28 13:22:00,35.8,0.7,29.32,NNE,13,0.0,3.1,22,0.00,,,0.00,VWS V13.01,2013-11-28 19:22:00,
2013-11-28 13:27:00,36.0,0.8,29.32,North,6,5.8,7.6,22,0.00,,,0.00,VWS V13.01,2013-11-28 19:27:00,
2013-11-28 13:32:00,36.0,0.8,29.32,NNE,12,3.6,5.4,22,0.00,,,0.00,VWS V13.01,2013-11-28 19:32:00,
2013-11-28 13:37:00,36.3,1.1,29.32,North,10,0.0,3.6,22,0.00,,,0.00,VWS V13.01,2013-11-28 19:37:00,
2013-11-28 13:42:00,36.7,1.4,29.32,North,2,9.6,9.6,22,0.00,,,0.00,VWS V13.01,2013-11-28 19:42:00,
2013-11-28 13:47:00,36.5,1.3,29.35,NNE,15,8.1,8.1,22,0.00,,,0.00,VWS V13.01,2013-11-28 19:47:00,
2013-11-28 13:53:00,36.5,1.3,29.35,North,7,8.3,8.3,22,0.00,,,0.00,VWS V13.01,2013-11-28 19:53:00,
2013-11-28 13:58:00,36.1,1.0,29.35,North,7,0.0,3.1,22,0.00,,,0.00,VWS V13.01,2013-11-28 19:58:00,
2013-11-28 14:03:00,36.3,1.1,29.35,North,7,7.2,7.6,22,0.00,,,0.00,VWS V13.01,2013-11-28 20:03:00,
2013-11-28 14:08:00,36.5,1.3,29.35,North,9,8.7,8.7,22,0.00,,,0.00,VWS V13.01,2013-11-28 20:08:00,
2013-11-28 14:13:00,36.3,1.1,29.35,NNE,12,4.9,4.9,22,0.00,,,0.00,VWS V13.01,2013-11-28 20:13:00,
2013-11-28 14:18:00,36.7,1.4,29.35,North,6,2.2,2.2,22,0.00,,,0.00,VWS V13.01,2013-11-28 20:18:00,
2013-11-28 14:23:00,37.0,1.7,29.35,North,10,0.0,0.0,22,0.00,,,0.00,VWS V13.01,2013-11-28 20:23:00,
2013-11-28 14:28:00,37.2,1.9,29.35,North,7,0.0,0.0,22,0.00,,,0.00,VWS V13.01,2013-11-28 20:28:00,
2013-11-28 14:33:00,37.0,1.7,29.35,North,9,2.2,2.2,22,0.00,,,0.00,VWS V13.01,2013-11-28 20:33:00,
2013-11-28 14:38:00,36.7,1.4,29.35,North,9,10.1,10.1,22,0.00,,,0.00,VWS V13.01,2013-11-28 20:38:00,
2013-11-28 14:43:00,36.5,1.3,29.35,North,8,7.2,7.2,22,0.00,,,0.00,VWS V13.01,2013-11-28 20:43:00,
2013-11-28 14:48:00,36.1,1.0,29.38,North,6,0.0,0.0,22,0.00,,,0.00,VWS V13.01,2013-11-28 20:48:00,
2013-11-28 14:53:00,36.5,1.3,29.38,NNE,16,8.3,8.3,22,0.00,,,0.00,VWS V13.01,2013-11-28 20:53:00,
2013-11-28 14:58:00,36.1,1.0,29.38,North,10,6.3,6.3,22,0.00,,,0.00,VWS V13.01,2013-11-28 20:58:00,
2013-11-28 15:03:00,36.1,1.0,29.38,North,10,0.0,5.4,22,0.00,,,0.00,VWS V13.01,2013-11-28 21:03:00,
2013-11-28 15:08:00,36.0,0.8,29.38,North,5,0.0,4.9,22,0.00,,,0.00,VWS V13.01,2013-11-28 21:08:00,
2013-11-28 15:13:00,35.4,0.4,29.38,North,10,7.2,7.2,22,0.00,,,0.00,VWS V13.01,2013-11-28 21:13:00,
2013-11-28 15:19:00,35.4,0.4,29.38,NNE,12,0.0,2.7,22,0.00,,,0.00,VWS V13.01,2013-11-28 21:19:00,
2013-11-28 15:24:00,35.1,0.1,29.38,North,5,0.0,2.7,22,0.00,,,0.00,VWS V13.01,2013-11-28 21:24:00,
2013-11-28 15:29:00,35.2,0.2,29.38,NNE,12,0.0,2.7,22,0.00,,,0.00,VWS V13.01,2013-11-28 21:29:00,
2013-11-28 15:34:00,34.9,-0.1,29.38,North,9,4.5,5.8,22,0.00,,,0.00,VWS V13.01,2013-11-28 21:34:00,
2013-11-28 15:39:00,34.7,-0.2,29.38,North,8,3.1,3.1,22,0.00,,,0.00,VWS V13.01,2013-11-28 21:39:00,
2013-11-28 15:44:00,34.3,-0.6,29.38,North,10,0.0,8.7,22,0.00,,,0.00,VWS V13.01,2013-11-28 21:44:00,
2013-11-28 15:49:00,34.2,-0.7,29.41,North,6,0.0,3.6,22,0.00,,,0.00,VWS V13.01,2013-11-28 21:49:00,
2013-11-28 15:54:00,34.2,-0.7,29.41,North,7,0.0,0.0,22,0.00,,,0.00,VWS V13.01,2013-11-28 21:54:00,
2013-11-28 15:59:00,34.2,-0.7,29.41,North,3,0.0,0.0,22,0.00,,,0.00,VWS V13.01,2013-11-28 21:59:00,
2013-11-28 16:04:00,34.0,-0.9,29.41,North,9,3.1,3.1,22,0.00,,,0.00,VWS V13.01,2013-11-28 22:04:00,
2013-11-28 16:09:00,33.8,-1.0,29.41,North,6,0.0,0.0,22,0.00,,,0.00,VWS V13.01,2013-11-28 22:09:00,
2013-11-28 16:14:00,33.6,-0.2,29.41,NNE,17,0.0,2.7,23,0.00,,,0.00,VWS V13.01,2013-11-28 22:14:00,
2013-11-28 16:19:00,33.1,-0.7,29.38,North,10,0.0,0.0,23,0.00,,,0.00,VWS V13.01,2013-11-28 22:19:00,
2013-11-28 16:24:00,32.5,-1.1,29.38,North,6,0.0,0.0,23,0.00,,,0.00,VWS V13.01,2013-11-28 22:24:00,
2013-11-28 16:29:00,32.2,-1.4,29.38,North,10,0.0,0.0,23,0.00,,,0.00,VWS V13.01,2013-11-28 22:29:00,
2013-11-28 16:34:00,31.6,-1.9,29.41,North,8,0.0,0.0,23,0.00,,,0.00,VWS V13.01,2013-11-28 22:34:00,
2013-11-28 16:39:00,31.1,-2.4,29.41,NNE,18,0.0,0.0,23,0.00,,,0.00,VWS V13.01,2013-11-28 22:39:00,
2013-11-28 16:44:00,30.2,-3.1,29.41,North,11,0.0,0.0,23,0.00,,,0.00,VWS V13.01,2013-11-28 22:44:00,
2013-11-28 16:49:00,29.5,-3.7,29.41,North,8,0.0,2.2,23,0.00,,,0.00,VWS V13.01,2013-11-28 22:49:00,
2013-11-28 16:54:00,29.1,-4.1,29.41,North,8,0.0,0.0,23,0.00,,,0.00,VWS V13.01,2013-11-28 22:54:00,
2013-11-28 16:59:00,28.8,-4.3,29.41,North,8,0.0,0.0,23,0.00,,,0.00,VWS V13.01,2013-11-28 22:59:00,
2013-11-28 17:04:00,28.6,-4.5,29.44,NNE,12,0.0,0.0,23,0.00,,,0.00,VWS V13.01,2013-11-28 23:04:00,
2013-11-28 17:09:00,28.2,-4.8,29.44,NNE,14,0.0,0.0,23,0.00,,,0.00,VWS V13.01,2013-11-28 23:09:00,
2013-11-28 17:14:00,28.0,-5.0,29.44,NNE,14,0.0,0.0,23,0.00,,,0.00,VWS V13.01,2013-11-28 23:14:00,
2013-11-28 17:19:00,27.9,-5.1,29.44,North,9,0.0,0.0,23,0.00,,,0.00,VWS V13.01,2013-11-28 23:19:00,
2013-11-28 17:24:00,27.7,-5.3,29.44,NNE,12,0.0,0.0,23,0.00,,,0.00,VWS V13.01,2013-11-28 23:24:00,
2013-11-28 17:29:00,27.5,-5.4,29.44,North,10,0.0,0.0,23,0.00,,,0.00,VWS V13.01,2013-11-28 23:29:00,
2013-11-28 17:34:00,27.1,-5.7,29.44,North,10,0.0,0.0,23,0.00,,,0.00,VWS V13.01,2013-11-28 23:34:00,
2013-11-28 17:39:00,27.0,-5.9,29.44,North,10,0.0,0.0,23,0.00,,,0.00,VWS V13.01,2013-11-28 23:39:00,
2013-11-28 17:44:00,26.6,-5.3,29.44,North,10,0.0,0.0,24,0.00,,,0.00,VWS V13.01,2013-11-28 23:44:00,
2013-11-28 17:49:00,26.4,-5.5,29.44,North,10,0.0,0.0,24,0.00,,,0.00,VWS V13.01,2013-11-28 23:49:00,
2013-11-28 17:54:00,26.2,-5.6,29.44,North,10,0.0,0.0,24,0.00,,,0.00,VWS V13.01,2013-11-28 23:54:00,
2013-11-28 17:59:00,26.2,-5.6,29.44,North,10,0.0,0.0,24,0.00,,,0.00,VWS V13.01,2013-11-28 23:59:00,
2013-11-28 18:04:00,26.2,-5.6,29.44,North,10,0.0,0.0,24,0.00,,,0.00,VWS V13.01,2013-11-29 00:04:00,
2013-11-28 18:09:00,26.1,-5.8,29.44,North,10,0.0,0.0,24,0.00,,,0.00,VWS V13.01,2013-11-29 00:09:00,
2013-11-28 18:14:00,25.9,-5.9,29.44,North,10,0.0,0.0,24,0.00,,,0.00,VWS V13.01,2013-11-29 00:14:00,
2013-11-28 18:19:00,25.9,-5.9,29.44,North,10,0.0,0.0,24,0.00,,,0.00,VWS V13.01,2013-11-29 00:19:00,
2013-11-28 18:24:00,25.5,-6.2,29.44,North,10,0.0,0.0,24,0.00,,,0.00,VWS V13.01,2013-11-29 00:24:00,
2013-11-28 18:29:00,25.7,-6.1,29.44,North,10,0.0,0.0,24,0.00,,,0.00,VWS V13.01,2013-11-29 00:29:00,
2013-11-28 18:34:00,25.7,-6.1,29.47,North,10,0.0,0.0,24,0.00,,,0.00,VWS V13.01,2013-11-29 00:34:00,
2013-11-28 18:39:00,25.5,-6.2,29.47,North,10,0.0,0.0,24,0.00,,,0.00,VWS V13.01,2013-11-29 00:39:00,
2013-11-28 18:44:00,25.5,-6.2,29.47,North,10,0.0,0.0,24,0.00,,,0.00,VWS V13.01,2013-11-29 00:44:00,
2013-11-28 18:49:00,25.3,-6.4,29.47,North,10,0.0,0.0,24,0.00,,,0.00,VWS V13.01,2013-11-29 00:49:00,
2013-11-28 18:54:00,25.2,-6.6,29.47,North,10,0.0,0.0,24,0.00,,,0.00,VWS V13.01,2013-11-29 00:54:00,
2013-11-28 18:59:00,25.0,-6.7,29.47,North,10,0.0,0.0,24,0.00,,,0.00,VWS V13.01,2013-11-29 00:59:00,
2013-11-28 19:04:00,25.0,-6.7,29.47,North,10,0.0,0.0,24,0.00,,,0.00,VWS V13.01,2013-11-29 01:04:00,
2013-11-28 19:09:00,25.2,-6.6,29.47,North,10,0.0,0.0,24,0.00,,,0.00,VWS V13.01,2013-11-29 01:09:00,
2013-11-28 19:14:00,25.3,-6.4,29.47,North,10,0.0,0.0,24,0.00,,,0.00,VWS V13.01,2013-11-29 01:14:00,
2013-11-28 19:19:00,25.2,-6.6,29.47,North,10,0.0,0.0,24,0.00,,,0.00,VWS V13.01,2013-11-29 01:19:00,
2013-11-28 19:24:00,25.3,-6.4,29.47,North,10,0.0,0.0,24,0.00,,,0.00,VWS V13.01,2013-11-29 01:24:00,
2013-11-28 19:29:00,25.3,-6.4,29.47,North,10,0.0,0.0,24,0.00,,,0.00,VWS V13.01,2013-11-29 01:29:00,
2013-11-28 19:34:00,25.5,-6.2,29.47,North,10,0.0,0.0,24,0.00,,,0.00,VWS V13.01,2013-11-29 01:34:00,
2013-11-28 19:39:00,25.5,-6.2,29.47,North,10,0.0,0.0,24,0.00,,,0.00,VWS V13.01,2013-11-29 01:39:00,
2013-11-28 19:44:00,25.3,-6.4,29.47,North,10,0.0,0.0,24,0.00,,,0.00,VWS V13.01,2013-11-29 01:44:00,
2013-11-28 19:49:00,25.0,-6.7,29.47,North,10,0.0,0.0,24,0.00,,,0.00,VWS V13.01,2013-11-29 01:49:00,
2013-11-28 19:54:00,24.8,-6.9,29.47,North,10,0.0,0.0,24,0.00,,,0.00,VWS V13.01,2013-11-29 01:54:00,
2013-11-28 19:59:00,24.6,-7.0,29.47,North,10,0.0,0.0,24,0.00,,,0.00,VWS V13.01,2013-11-29 01:59:00,
2013-11-28 20:04:00,24.4,-7.2,29.47,North,10,0.0,0.0,24,0.00,,,0.00,VWS V13.01,2013-11-29 02:04:00,
2013-11-28 20:09:00,24.4,-7.2,29.47,North,10,0.0,0.0,24,0.00,,,0.00,VWS V13.01,2013-11-29 02:09:00,
2013-11-28 20:14:00,24.4,-7.2,29.47,North,10,0.0,0.0,24,0.00,,,0.00,VWS V13.01,2013-11-29 02:14:00,
2013-11-28 20:20:00,24.4,-7.2,29.47,North,10,0.0,0.0,24,0.00,,,0.00,VWS V13.01,2013-11-29 02:20:00,
2013-11-28 20:25:00,24.3,-7.3,29.47,North,10,0.0,0.0,24,0.00,,,0.00,VWS V13.01,2013-11-29 02:25:00,
2013-11-28 20:30:00,24.3,-7.3,29.47,North,10,0.0,0.0,24,0.00,,,0.00,VWS V13.01,2013-11-29 02:30:00,
2013-11-28 20:35:00,24.4,-7.2,29.50,North,10,0.0,0.0,24,0.00,,,0.00,VWS V13.01,2013-11-29 02:35:00,
2013-11-28 20:40:00,24.4,-7.2,29.50,North,10,0.0,0.0,24,0.00,,,0.00,VWS V13.01,2013-11-29 02:40:00,
2013-11-28 20:45:00,24.4,-7.2,29.50,North,10,0.0,0.0,24,0.00,,,0.00,VWS V13.01,2013-11-29 02:45:00,
2013-11-28 20:50:00,24.4,-7.2,29.50,North,10,0.0,0.0,24,0.00,,,0.00,VWS V13.01,2013-11-29 02:50:00,
2013-11-28 20:55:00,24.4,-7.2,29.50,North,10,0.0,0.0,24,0.00,,,0.00,VWS V13.01,2013-11-29 02:55:00,
2013-11-28 21:00:00,24.3,-7.3,29.50,North,10,0.0,0.0,24,0.00,,,0.00,VWS V13.01,2013-11-29 03:00:00,
2013-11-28 21:05:00,24.3,-7.3,29.50,North,10,0.0,0.0,24,0.00,,,0.00,VWS V13.01,2013-11-29 03:05:00,
2013-11-28 21:10:00,24.3,-7.3,29.50,North,10,0.0,0.0,24,0.00,,,0.00,VWS V13.01,2013-11-29 03:10:00,
2013-11-28 21:15:00,24.1,-7.5,29.50,NNE,12,0.0,0.0,24,0.00,,,0.00,VWS V13.01,2013-11-29 03:15:00,
2013-11-28 21:20:00,24.3,-7.3,29.50,NNE,12,0.0,0.0,24,0.00,,,0.00,VWS V13.01,2013-11-29 03:20:00,
2013-11-28 21:25:00,24.3,-7.3,29.50,NNE,12,0.0,0.0,24,0.00,,,0.00,VWS V13.01,2013-11-29 03:25:00,
2013-11-28 21:30:00,24.3,-7.3,29.50,NNE,12,0.0,0.0,24,0.00,,,0.00,VWS V13.01,2013-11-29 03:30:00,
2013-11-28 21:35:00,24.1,-7.5,29.50,NNE,12,0.0,0.0,24,0.00,,,0.00,VWS V13.01,2013-11-29 03:35:00,
2013-11-28 21:41:00,23.9,-7.6,29.50,NNE,12,0.0,0.0,24,0.00,,,0.00,VWS V13.01,2013-11-29 03:41:00,
2013-11-28 21:46:00,23.5,-7.9,29.50,NNE,12,0.0,0.0,24,0.00,,,0.00,VWS V13.01,2013-11-29 03:46:00,
2013-11-28 21:51:00,23.4,-8.1,29.50,NNE,12,0.0,0.0,24,0.00,,,0.00,VWS V13.01,2013-11-29 03:51:00,
2013-11-28 21:56:00,23.2,-8.2,29.50,NNE,12,0.0,0.0,24,0.00,,,0.00,VWS V13.01,2013-11-29 03:56:00,
2013-11-28 22:01:00,22.8,-7.7,29.50,NNE,12,0.0,0.0,25,0.00,,,0.00,VWS V13.01,2013-11-29 04:01:00,
2013-11-28 22:06:00,22.8,-7.7,29.50,NNE,12,0.0,0.0,25,0.00,,,0.00,VWS V13.01,2013-11-29 04:06:00,
2013-11-28 22:11:00,22.8,-7.7,29.50,NNE,12,0.0,0.0,25,0.00,,,0.00,VWS V13.01,2013-11-29 04:11:00,
2013-11-28 22:16:00,22.8,-7.7,29.50,NNE,12,0.0,0.0,25,0.00,,,0.00,VWS V13.01,2013-11-29 04:16:00,
2013-11-28 22:21:00,23.0,-7.6,29.50,NNE,12,0.0,0.0,25,0.00,,,0.00,VWS V13.01,2013-11-29 04:21:00,
2013-11-28 22:26:00,22.8,-7.7,29.50,NNE,12,0.0,0.0,25,0.00,,,0.00,VWS V13.01,2013-11-29 04:26:00,
2013-11-28 22:31:00,22.8,-7.7,29.50,NNE,12,0.0,0.0,25,0.00,,,0.00,VWS V13.01,2013-11-29 04:31:00,
2013-11-28 22:36:00,22.6,-7.9,29.50,NNE,12,0.0,0.0,25,0.00,,,0.00,VWS V13.01,2013-11-29 04:36:00,
2013-11-28 22:41:00,22.5,-8.0,29.50,NNE,12,0.0,0.0,25,0.00,,,0.00,VWS V13.01,2013-11-29 04:41:00,
2013-11-28 22:46:00,22.5,-8.0,29.50,NNE,12,0.0,0.0,25,0.00,,,0.00,VWS V13.01,2013-11-29 04:46:00,
2013-11-28 22:51:00,22.5,-8.0,29.50,NNE,12,0.0,0.0,25,0.00,,,0.00,VWS V13.01,2013-11-29 04:51:00,
2013-11-28 22:56:00,22.5,-8.0,29.50,NNE,12,0.0,0.0,25,0.00,,,0.00,VWS V13.01,2013-11-29 04:56:00,
2013-11-28 23:01:00,22.5,-8.0,29.50,NNE,12,0.0,0.0,25,0.00,,,0.00,VWS V13.01,2013-11-29 05:01:00,
2013-11-28 23:02:00,22.3,-8.2,29.50,NNE,12,0.0,0.0,25,0.00,,,0.00,VWS V13.01,2013-11-29 05:02:00,
2013-11-28 23:03:00,22.3,-8.2,29.50,NNE,12,0.0,0.0,25,0.00,,,0.00,VWS V13.01,2013-11-29 05:03:00,
2013-11-28 23:04:00,22.3,-8.2,29.50,NNE,12,0.0,0.0,25,0.00,,,0.00,VWS V13.01,2013-11-29 05:04:00,
2013-11-28 23:09:00,21.9,-8.5,29.50,NNE,12,0.0,0.0,25,0.00,,,0.00,VWS V13.01,2013-11-29 05:09:00,
2013-11-28 23:14:00,21.7,-8.6,29.50,NNE,12,0.0,0.0,25,0.00,,,0.00,VWS V13.01,2013-11-29 05:14:00,
2013-11-28 23:19:00,21.7,-8.6,29.50,NNE,12,0.0,0.0,25,0.00,,,0.00,VWS V13.01,2013-11-29 05:19:00,
2013-11-28 23:24:00,21.7,-8.6,29.50,NNE,14,0.0,0.0,25,0.00,,,0.00,VWS V13.01,2013-11-29 05:24:00,
2013-11-28 23:29:00,21.7,-8.6,29.50,NNE,14,0.0,0.0,25,0.00,,,0.00,VWS V13.01,2013-11-29 05:29:00,
2013-11-28 23:34:00,21.6,-8.8,29.53,NNE,14,0.0,0.0,25,0.00,,,0.00,VWS V13.01,2013-11-29 05:34:00,
2013-11-28 23:39:00,21.6,-8.8,29.53,NNE,14,0.0,0.0,25,0.00,,,0.00,VWS V13.01,2013-11-29 05:39:00,
2013-11-28 23:44:00,21.4,-9.0,29.53,NNE,14,0.0,0.0,25,0.00,,,0.00,VWS V13.01,2013-11-29 05:44:00,
2013-11-28 23:49:00,21.2,-9.1,29.53,NNE,14,0.0,0.0,25,0.00,,,0.00,VWS V13.01,2013-11-29 05:49:00,
2013-11-28 23:54:00,21.2,-9.1,29.53,NNE,14,0.0,0.0,25,0.00,,,0.00,VWS V13.01,2013-11-29 05:54:00,
2013-11-28 23:59:00,21.0,-9.3,29.53,NNE,14,0.0,0.0,25,0.00,,,0.00,VWS V13.01,2013-11-29 05:59:00,